sensor_id;sensor_type;location;lat;lon;timestamp;pressure;altitude;pressure_sealevel;temperature;humidity
2192;BME280;1102;49.718;11.902;2023-03-22T00:01:21;96083.78;;;7.93;100.00
2192;BME280;1102;49.718;11.902;2023-03-22T00:03:49;96073.59;;;7.92;100.00
2192;BME280;1102;49.718;11.902;2023-03-22T00:06:16;96119.91;;;8.31;100.00
2192;BME280;1102;49.718;11.902;2023-03-22T00:08:43;96116.72;;;8.17;100.00
2192;BME280;1102;49.718;11.902;2023-03-22T00:11:11;96110.03;;;8.19;100.00
2192;BME280;1102;49.718;11.902;2023-03-22T00:13:38;96082.38;;;7.96;100.00
2192;BME280;1102;49.718;11.902;2023-03-22T00:16:05;96101.88;;;8.04;100.00
2192;BME280;1102;49.718;11.902;2023-03-22T00:18:32;96089.50;;;7.95;100.00
2192;BME280;1102;49.718;11.902;2023-03-22T00:20:59;96095.41;;;7.92;100.00
2192;BME280;1102;49.718;11.902;2023-03-22T00:23:27;96065.75;;;7.57;100.00
2192;BME280;1102;49.718;11.902;2023-03-22T00:25:54;96066.84;;;7.65;100.00
2192;BME280;1102;49.718;11.902;2023-03-22T00:28:21;96046.75;;;7.43;100.00
2192;BME280;1102;49.718;11.902;2023-03-22T00:30:58;96071.06;;;7.49;100.00
2192;BME280;1102;49.718;11.902;2023-03-22T00:33:29;96074.91;;;7.51;100.00
2192;BME280;1102;49.718;11.902;2023-03-22T00:35:59;96079.56;;;7.54;100.00
2192;BME280;1102;49.718;11.902;2023-03-22T00:38:26;96079.56;;;7.54;100.00
2192;BME280;1102;49.718;11.902;2023-03-22T00:41:14;96071.19;;;7.52;100.00
2192;BME280;1102;49.718;11.902;2023-03-22T00:43:44;96052.19;;;7.38;100.00
2192;BME280;1102;49.718;11.902;2023-03-22T00:46:12;96068.72;;;7.47;100.00
2192;BME280;1102;49.718;11.902;2023-03-22T00:48:39;96068.44;;;7.49;100.00
2192;BME280;1102;49.718;11.902;2023-03-22T00:51:07;96052.03;;;7.43;100.00
2192;BME280;1102;49.718;11.902;2023-03-22T00:53:35;96076.13;;;7.62;100.00
2192;BME280;1102;49.718;11.902;2023-03-22T00:56:03;96054.03;;;7.46;100.00
2192;BME280;1102;49.718;11.902;2023-03-22T00:58:40;96052.47;;;7.45;100.00
2192;BME280;1102;49.718;11.902;2023-03-22T01:01:08;96062.53;;;7.43;100.00
2192;BME280;1102;49.718;11.902;2023-03-22T01:03:34;96073.88;;;7.35;100.00
2192;BME280;1102;49.718;11.902;2023-03-22T01:06:01;96039.69;;;7.18;100.00
2192;BME280;1102;49.718;11.902;2023-03-22T01:08:29;96073.06;;;7.43;100.00
2192;BME280;1102;49.718;11.902;2023-03-22T01:10:59;96060.09;;;7.21;100.00
2192;BME280;1102;49.718;11.902;2023-03-22T01:13:26;96065.81;;;7.23;100.00
2192;BME280;1102;49.718;11.902;2023-03-22T01:15:54;96031.78;;;7.26;100.00
2192;BME280;1102;49.718;11.902;2023-03-22T01:18:22;96042.91;;;7.40;100.00
2192;BME280;1102;49.718;11.902;2023-03-22T01:20:48;96046.31;;;7.32;100.00
2192;BME280;1102;49.718;11.902;2023-03-22T01:23:16;96019.72;;;7.17;100.00
2192;BME280;1102;49.718;11.902;2023-03-22T01:25:43;96041.06;;;7.24;100.00
2192;BME280;1102;49.718;11.902;2023-03-22T01:28:09;96024.38;;;7.11;100.00
2192;BME280;1102;49.718;11.902;2023-03-22T01:30:38;96046.63;;;7.39;100.00
2192;BME280;1102;49.718;11.902;2023-03-22T01:33:06;96039.97;;;7.33;100.00
2192;BME280;1102;49.718;11.902;2023-03-22T01:35:34;96004.44;;;7.01;100.00
2192;BME280;1102;49.718;11.902;2023-03-22T01:38:03;96022.06;;;7.09;100.00
2192;BME280;1102;49.718;11.902;2023-03-22T01:40:33;96014.03;;;6.97;100.00
2192;BME280;1102;49.718;11.902;2023-03-22T01:43:00;96017.13;;;6.82;100.00
2192;BME280;1102;49.718;11.902;2023-03-22T01:45:40;96026.06;;;6.81;100.00
2192;BME280;1102;49.718;11.902;2023-03-22T01:50:59;96026.09;;;6.90;100.00
2192;BME280;1102;49.718;11.902;2023-03-22T01:53:36;95997.03;;;6.69;100.00
2192;BME280;1102;49.718;11.902;2023-03-22T01:56:06;95991.00;;;6.51;100.00
2192;BME280;1102;49.718;11.902;2023-03-22T01:58:35;96015.88;;;6.62;100.00
2192;BME280;1102;49.718;11.902;2023-03-22T02:01:06;96013.09;;;6.41;100.00
2192;BME280;1102;49.718;11.902;2023-03-22T02:03:57;96017.44;;;6.55;100.00
2192;BME280;1102;49.718;11.902;2023-03-22T02:06:25;96011.72;;;6.61;100.00
2192;BME280;1102;49.718;11.902;2023-03-22T02:09:10;96014.78;;;6.63;100.00
2192;BME280;1102;49.718;11.902;2023-03-22T02:11:41;95991.28;;;6.41;100.00
2192;BME280;1102;49.718;11.902;2023-03-22T02:14:47;95999.06;;;6.55;100.00
2192;BME280;1102;49.718;11.902;2023-03-22T02:18:20;96018.34;;;6.67;100.00
2192;BME280;1102;49.718;11.902;2023-03-22T02:22:15;96017.56;;;6.67;100.00
2192;BME280;1102;49.718;11.902;2023-03-22T02:27:30;96012.28;;;6.41;100.00
2192;BME280;1102;49.718;11.902;2023-03-22T02:30:06;96009.34;;;6.34;100.00
2192;BME280;1102;49.718;11.902;2023-03-22T02:33:04;96004.25;;;6.29;100.00
2192;BME280;1102;49.718;11.902;2023-03-22T02:35:43;96014.91;;;6.32;100.00
2192;BME280;1102;49.718;11.902;2023-03-22T02:38:16;96024.78;;;6.27;100.00
2192;BME280;1102;49.718;11.902;2023-03-22T02:40:51;96014.28;;;6.18;100.00
2192;BME280;1102;49.718;11.902;2023-03-22T02:43:30;95956.97;;;5.63;100.00
2192;BME280;1102;49.718;11.902;2023-03-22T02:51:49;96007.88;;;5.93;100.00
2192;BME280;1102;49.718;11.902;2023-03-22T02:54:32;95997.88;;;5.73;100.00
2192;BME280;1102;49.718;11.902;2023-03-22T02:57:35;95976.72;;;5.69;100.00
2192;BME280;1102;49.718;11.902;2023-03-22T02:59:59;95969.06;;;5.81;100.00
2192;BME280;1102;49.718;11.902;2023-03-22T03:02:30;95956.56;;;5.47;100.00
2192;BME280;1102;49.718;11.902;2023-03-22T03:04:59;95984.91;;;5.68;100.00
2192;BME280;1102;49.718;11.902;2023-03-22T03:07:27;95966.38;;;5.33;100.00
2192;BME280;1102;49.718;11.902;2023-03-22T03:09:55;95964.19;;;5.26;100.00
2192;BME280;1102;49.718;11.902;2023-03-22T03:12:26;95964.19;;;5.26;100.00
2192;BME280;1102;49.718;11.902;2023-03-22T03:14:55;95987.19;;;5.29;100.00
2192;BME280;1102;49.718;11.902;2023-03-22T03:22:52;95981.72;;;5.17;100.00
2192;BME280;1102;49.718;11.902;2023-03-22T03:25:32;95977.50;;;5.08;100.00
2192;BME280;1102;49.718;11.902;2023-03-22T03:28:32;95955.41;;;5.00;100.00
2192;BME280;1102;49.718;11.902;2023-03-22T03:33:34;95978.47;;;5.12;100.00
2192;BME280;1102;49.718;11.902;2023-03-22T03:36:08;95981.63;;;5.00;100.00
2192;BME280;1102;49.718;11.902;2023-03-22T03:38:41;95983.59;;;4.94;100.00
2192;BME280;1102;49.718;11.902;2023-03-22T03:41:18;95987.75;;;4.95;100.00
2192;BME280;1102;49.718;11.902;2023-03-22T03:43:49;95985.06;;;4.87;100.00
2192;BME280;1102;49.718;11.902;2023-03-22T03:46:16;95949.81;;;4.48;100.00
2192;BME280;1102;49.718;11.902;2023-03-22T03:48:46;95988.50;;;4.73;100.00
2192;BME280;1102;49.718;11.902;2023-03-22T03:51:14;95984.94;;;4.69;100.00
2192;BME280;1102;49.718;11.902;2023-03-22T03:53:41;96004.81;;;4.70;100.00
2192;BME280;1102;49.718;11.902;2023-03-22T03:56:08;95993.28;;;4.71;100.00
2192;BME280;1102;49.718;11.902;2023-03-22T03:58:40;95956.63;;;4.35;100.00
2192;BME280;1102;49.718;11.902;2023-03-22T04:01:07;96008.72;;;4.59;100.00
2192;BME280;1102;49.718;11.902;2023-03-22T04:03:34;95963.19;;;4.10;100.00
2192;BME280;1102;49.718;11.902;2023-03-22T04:06:10;96005.13;;;4.19;100.00
2192;BME280;1102;49.718;11.902;2023-03-22T04:08:41;95972.97;;;4.05;100.00
2192;BME280;1102;49.718;11.902;2023-03-22T04:11:13;95982.75;;;4.13;100.00
2192;BME280;1102;49.718;11.902;2023-03-22T04:13:41;96009.00;;;4.08;100.00
2192;BME280;1102;49.718;11.902;2023-03-22T04:16:12;95987.22;;;3.85;100.00
2192;BME280;1102;49.718;11.902;2023-03-22T04:18:39;95999.03;;;3.82;100.00
2192;BME280;1102;49.718;11.902;2023-03-22T04:21:07;95968.53;;;3.50;100.00
2192;BME280;1102;49.718;11.902;2023-03-22T04:23:45;95972.13;;;3.54;100.00
2192;BME280;1102;49.718;11.902;2023-03-22T04:26:12;95997.00;;;3.66;100.00
2192;BME280;1102;49.718;11.902;2023-03-22T04:28:51;95999.63;;;3.66;100.00
2192;BME280;1102;49.718;11.902;2023-03-22T04:31:18;95999.31;;;3.67;100.00
2192;BME280;1102;49.718;11.902;2023-03-22T04:34:05;95986.16;;;3.59;100.00
2192;BME280;1102;49.718;11.902;2023-03-22T04:36:46;95999.03;;;3.69;100.00
2192;BME280;1102;49.718;11.902;2023-03-22T04:39:33;95977.03;;;3.42;100.00
2192;BME280;1102;49.718;11.902;2023-03-22T04:42:18;95976.28;;;3.55;100.00
2192;BME280;1102;49.718;11.902;2023-03-22T04:44:49;95981.31;;;3.52;100.00
2192;BME280;1102;49.718;11.902;2023-03-22T04:47:16;96006.00;;;3.73;100.00
2192;BME280;1102;49.718;11.902;2023-03-22T04:49:44;95971.63;;;3.52;100.00
2192;BME280;1102;49.718;11.902;2023-03-22T04:52:11;95954.47;;;3.46;100.00
2192;BME280;1102;49.718;11.902;2023-03-22T04:54:42;95978.00;;;3.60;100.00
2192;BME280;1102;49.718;11.902;2023-03-22T04:57:10;95991.97;;;3.83;100.00
2192;BME280;1102;49.718;11.902;2023-03-22T04:59:41;96007.56;;;3.88;100.00
2192;BME280;1102;49.718;11.902;2023-03-22T05:02:08;95964.84;;;3.51;100.00
2192;BME280;1102;49.718;11.902;2023-03-22T05:04:40;95975.13;;;3.62;100.00
2192;BME280;1102;49.718;11.902;2023-03-22T05:07:25;95967.84;;;3.59;100.00
2192;BME280;1102;49.718;11.902;2023-03-22T05:09:55;95975.69;;;3.45;100.00
2192;BME280;1102;49.718;11.902;2023-03-22T05:12:22;96003.59;;;3.63;100.00
2192;BME280;1102;49.718;11.902;2023-03-22T05:14:54;95990.22;;;3.51;100.00
2192;BME280;1102;49.718;11.902;2023-03-22T05:17:25;95980.91;;;3.59;100.00
2192;BME280;1102;49.718;11.902;2023-03-22T05:19:55;96004.75;;;3.71;100.00
2192;BME280;1102;49.718;11.902;2023-03-22T05:22:21;96015.00;;;3.67;100.00
2192;BME280;1102;49.718;11.902;2023-03-22T05:24:50;96017.34;;;3.69;100.00
2192;BME280;1102;49.718;11.902;2023-03-22T05:27:21;95993.69;;;3.60;100.00
2192;BME280;1102;49.718;11.902;2023-03-22T05:30:04;95978.13;;;3.55;100.00
2192;BME280;1102;49.718;11.902;2023-03-22T05:33:02;96010.56;;;3.68;100.00
2192;BME280;1102;49.718;11.902;2023-03-22T05:35:37;96014.53;;;3.65;100.00
2192;BME280;1102;49.718;11.902;2023-03-22T05:38:06;96013.66;;;3.70;100.00
2192;BME280;1102;49.718;11.902;2023-03-22T05:40:35;95995.81;;;3.44;100.00
2192;BME280;1102;49.718;11.902;2023-03-22T05:43:05;95981.28;;;3.24;100.00
2192;BME280;1102;49.718;11.902;2023-03-22T05:45:34;95992.00;;;3.23;100.00
2192;BME280;1102;49.718;11.902;2023-03-22T05:48:22;95989.59;;;3.26;100.00
2192;BME280;1102;49.718;11.902;2023-03-22T05:50:49;95969.63;;;3.17;100.00
2192;BME280;1102;49.718;11.902;2023-03-22T05:53:16;95998.03;;;3.37;100.00
2192;BME280;1102;49.718;11.902;2023-03-22T05:55:56;96003.66;;;3.44;100.00
2192;BME280;1102;49.718;11.902;2023-03-22T05:58:28;95995.94;;;3.53;100.00
2192;BME280;1102;49.718;11.902;2023-03-22T06:00:57;95992.91;;;3.60;100.00
2192;BME280;1102;49.718;11.902;2023-03-22T06:03:44;95989.03;;;3.57;100.00
2192;BME280;1102;49.718;11.902;2023-03-22T06:06:19;95970.75;;;3.43;100.00
2192;BME280;1102;49.718;11.902;2023-03-22T06:08:54;96000.09;;;3.81;100.00
2192;BME280;1102;49.718;11.902;2023-03-22T06:11:40;95986.75;;;3.69;100.00
2192;BME280;1102;49.718;11.902;2023-03-22T06:14:07;95985.19;;;3.54;100.00
2192;BME280;1102;49.718;11.902;2023-03-22T06:16:54;95983.53;;;3.59;100.00
2192;BME280;1102;49.718;11.902;2023-03-22T06:19:20;95957.38;;;3.45;100.00
2192;BME280;1102;49.718;11.902;2023-03-22T06:21:47;95982.75;;;3.72;100.00
2192;BME280;1102;49.718;11.902;2023-03-22T06:24:16;95982.56;;;3.82;100.00
2192;BME280;1102;49.718;11.902;2023-03-22T06:26:44;95949.38;;;3.69;100.00
2192;BME280;1102;49.718;11.902;2023-03-22T06:29:11;95994.19;;;4.03;100.00
2192;BME280;1102;49.718;11.902;2023-03-22T06:31:38;95996.09;;;4.11;100.00
2192;BME280;1102;49.718;11.902;2023-03-22T06:34:06;95972.38;;;4.08;100.00
2192;BME280;1102;49.718;11.902;2023-03-22T06:36:39;95998.72;;;4.11;100.00
2192;BME280;1102;49.718;11.902;2023-03-22T06:39:15;95959.81;;;3.96;100.00
2192;BME280;1102;49.718;11.902;2023-03-22T06:41:43;95999.91;;;4.19;100.00
2192;BME280;1102;49.718;11.902;2023-03-22T06:44:10;95999.22;;;4.13;100.00
2192;BME280;1102;49.718;11.902;2023-03-22T06:46:49;95978.59;;;3.98;100.00
2192;BME280;1102;49.718;11.902;2023-03-22T06:49:34;95979.66;;;3.97;100.00
2192;BME280;1102;49.718;11.902;2023-03-22T06:52:02;95989.44;;;4.19;100.00
2192;BME280;1102;49.718;11.902;2023-03-22T06:54:29;95967.94;;;4.08;100.00
2192;BME280;1102;49.718;11.902;2023-03-22T06:56:56;95943.78;;;4.11;100.00
2192;BME280;1102;49.718;11.902;2023-03-22T06:59:23;95958.84;;;4.42;100.00
2192;BME280;1102;49.718;11.902;2023-03-22T07:01:50;95944.75;;;4.52;100.00
2192;BME280;1102;49.718;11.902;2023-03-22T07:04:17;95929.13;;;4.60;100.00
2192;BME280;1102;49.718;11.902;2023-03-22T07:06:46;95986.41;;;5.07;100.00
2192;BME280;1102;49.718;11.902;2023-03-22T07:09:13;95907.81;;;4.75;100.00
2192;BME280;1102;49.718;11.902;2023-03-22T07:11:41;96000.25;;;5.52;100.00
2192;BME280;1102;49.718;11.902;2023-03-22T07:14:08;95975.75;;;5.56;100.00
2192;BME280;1102;49.718;11.902;2023-03-22T07:16:57;96019.75;;;5.99;100.00
2192;BME280;1102;49.718;11.902;2023-03-22T07:19:26;95999.59;;;6.26;100.00
2192;BME280;1102;49.718;11.902;2023-03-22T07:21:54;95975.25;;;6.42;100.00
2192;BME280;1102;49.718;11.902;2023-03-22T07:24:21;96024.25;;;6.99;100.00
2192;BME280;1102;49.718;11.902;2023-03-22T07:26:49;95993.63;;;6.94;100.00
2192;BME280;1102;49.718;11.902;2023-03-22T07:29:20;96007.94;;;7.31;100.00
2192;BME280;1102;49.718;11.902;2023-03-22T07:31:47;95995.38;;;7.46;100.00
2192;BME280;1102;49.718;11.902;2023-03-22T07:34:20;96024.91;;;7.60;100.00
2192;BME280;1102;49.718;11.902;2023-03-22T07:37:10;96016.00;;;7.90;100.00
2192;BME280;1102;49.718;11.902;2023-03-22T07:39:39;95984.19;;;8.04;100.00
2192;BME280;1102;49.718;11.902;2023-03-22T07:42:06;95977.53;;;7.98;100.00
2192;BME280;1102;49.718;11.902;2023-03-22T07:44:59;95993.06;;;8.20;100.00
2192;BME280;1102;49.718;11.902;2023-03-22T07:47:26;96029.72;;;8.43;100.00
2192;BME280;1102;49.718;11.902;2023-03-22T07:50:26;96025.16;;;8.73;100.00
2192;BME280;1102;49.718;11.902;2023-03-22T07:52:55;96013.47;;;8.82;100.00
2192;BME280;1102;49.718;11.902;2023-03-22T07:55:21;96036.06;;;9.25;100.00
2192;BME280;1102;49.718;11.902;2023-03-22T07:57:48;95995.41;;;9.26;100.00
2192;BME280;1102;49.718;11.902;2023-03-22T08:00:15;95996.06;;;9.81;100.00
2192;BME280;1102;49.718;11.902;2023-03-22T08:02:48;96007.66;;;10.25;100.00
2192;BME280;1102;49.718;11.902;2023-03-22T08:05:53;96004.34;;;10.28;100.00
2192;BME280;1102;49.718;11.902;2023-03-22T08:08:20;96009.16;;;10.62;100.00
2192;BME280;1102;49.718;11.902;2023-03-22T08:10:47;95992.19;;;10.51;100.00
2192;BME280;1102;49.718;11.902;2023-03-22T08:13:14;96008.50;;;10.53;100.00
2192;BME280;1102;49.718;11.902;2023-03-22T08:15:41;96005.84;;;10.53;100.00
2192;BME280;1102;49.718;11.902;2023-03-22T08:18:09;96023.00;;;10.72;100.00
2192;BME280;1102;49.718;11.902;2023-03-22T08:20:38;96038.72;;;10.80;100.00
2192;BME280;1102;49.718;11.902;2023-03-22T08:23:11;96031.09;;;10.91;100.00
2192;BME280;1102;49.718;11.902;2023-03-22T08:26:08;96040.41;;;10.85;100.00
2192;BME280;1102;49.718;11.902;2023-03-22T08:28:35;96004.78;;;10.42;100.00
2192;BME280;1102;49.718;11.902;2023-03-22T08:31:09;96034.28;;;10.56;100.00
2192;BME280;1102;49.718;11.902;2023-03-22T08:33:39;96003.44;;;10.48;100.00
2192;BME280;1102;49.718;11.902;2023-03-22T08:36:08;96043.28;;;10.68;100.00
2192;BME280;1102;49.718;11.902;2023-03-22T08:38:42;96039.09;;;11.07;100.00
2192;BME280;1102;49.718;11.902;2023-03-22T08:41:13;96018.19;;;11.02;100.00
2192;BME280;1102;49.718;11.902;2023-03-22T08:43:41;96037.44;;;11.14;100.00
2192;BME280;1102;49.718;11.902;2023-03-22T08:46:08;96035.22;;;11.16;100.00
2192;BME280;1102;49.718;11.902;2023-03-22T08:48:35;96001.78;;;10.96;100.00
2192;BME280;1102;49.718;11.902;2023-03-22T08:51:09;95934.47;;;10.53;100.00
2192;BME280;1102;49.718;11.902;2023-03-22T08:53:54;96037.44;;;11.14;100.00
2192;BME280;1102;49.718;11.902;2023-03-22T08:56:43;96034.50;;;11.04;100.00
2192;BME280;1102;49.718;11.902;2023-03-22T08:59:33;95997.06;;;10.89;100.00
2192;BME280;1102;49.718;11.902;2023-03-22T09:02:26;95968.59;;;10.71;100.00
2192;BME280;1102;49.718;11.902;2023-03-22T09:04:54;96019.59;;;11.11;100.00
2192;BME280;1102;49.718;11.902;2023-03-22T09:07:21;96014.91;;;11.20;100.00
2192;BME280;1102;49.718;11.902;2023-03-22T09:10:00;95995.03;;;11.27;100.00
2192;BME280;1102;49.718;11.902;2023-03-22T09:12:27;95995.34;;;11.37;100.00
2192;BME280;1102;49.718;11.902;2023-03-22T09:14:55;95967.72;;;11.22;100.00
2192;BME280;1102;49.718;11.902;2023-03-22T09:17:24;96025.41;;;11.61;100.00
2192;BME280;1102;49.718;11.902;2023-03-22T09:19:51;96011.75;;;11.59;100.00
2192;BME280;1102;49.718;11.902;2023-03-22T09:22:35;95984.34;;;11.67;100.00
2192;BME280;1102;49.718;11.902;2023-03-22T09:25:03;96015.38;;;12.13;100.00
2192;BME280;1102;49.718;11.902;2023-03-22T09:27:31;95999.06;;;12.11;100.00
2192;BME280;1102;49.718;11.902;2023-03-22T09:29:58;95986.06;;;12.06;100.00
2192;BME280;1102;49.718;11.902;2023-03-22T09:32:25;96014.69;;;12.32;100.00
2192;BME280;1102;49.718;11.902;2023-03-22T09:34:58;96012.50;;;12.54;100.00
2192;BME280;1102;49.718;11.902;2023-03-22T09:37:31;96006.66;;;12.64;100.00
2192;BME280;1102;49.718;11.902;2023-03-22T09:39:59;96000.63;;;12.83;100.00
2192;BME280;1102;49.718;11.902;2023-03-22T09:42:35;95988.53;;;12.85;100.00
2192;BME280;1102;49.718;11.902;2023-03-22T09:45:10;95981.56;;;12.96;100.00
2192;BME280;1102;49.718;11.902;2023-03-22T09:47:44;95903.09;;;12.57;100.00
2192;BME280;1102;49.718;11.902;2023-03-22T09:50:43;95992.81;;;13.28;100.00
2192;BME280;1102;49.718;11.902;2023-03-22T09:53:13;95947.13;;;13.00;100.00
2192;BME280;1102;49.718;11.902;2023-03-22T09:56:06;95945.66;;;13.02;100.00
2192;BME280;1102;49.718;11.902;2023-03-22T10:01:05;95980.09;;;13.60;100.00
2192;BME280;1102;49.718;11.902;2023-03-22T10:06:22;95980.94;;;13.65;100.00
2192;BME280;1102;49.718;11.902;2023-03-22T10:09:07;95977.19;;;13.46;100.00
2192;BME280;1102;49.718;11.902;2023-03-22T10:11:52;95975.38;;;13.50;100.00
2192;BME280;1102;49.718;11.902;2023-03-22T10:14:41;95981.25;;;13.40;100.00
2192;BME280;1102;49.718;11.902;2023-03-22T10:17:15;95963.94;;;13.27;100.00
2192;BME280;1102;49.718;11.902;2023-03-22T10:19:54;95959.63;;;13.19;100.00
2192;BME280;1102;49.718;11.902;2023-03-22T10:22:27;95984.63;;;13.37;100.00
2192;BME280;1102;49.718;11.902;2023-03-22T10:24:56;95978.66;;;13.44;100.00
2192;BME280;1102;49.718;11.902;2023-03-22T10:27:25;95975.13;;;13.59;100.00
2192;BME280;1102;49.718;11.902;2023-03-22T10:30:21;95968.47;;;13.69;100.00
2192;BME280;1102;49.718;11.902;2023-03-22T10:32:58;95946.41;;;13.65;100.00
2192;BME280;1102;49.718;11.902;2023-03-22T10:35:26;95929.78;;;13.71;100.00
2192;BME280;1102;49.718;11.902;2023-03-22T10:37:55;95961.16;;;14.11;100.00
2192;BME280;1102;49.718;11.902;2023-03-22T10:40:30;95923.16;;;13.84;100.00
2192;BME280;1102;49.718;11.902;2023-03-22T10:43:05;95924.97;;;13.77;100.00
2192;BME280;1102;49.718;11.902;2023-03-22T10:45:34;95931.31;;;13.95;100.00
2192;BME280;1102;49.718;11.902;2023-03-22T10:48:10;95949.31;;;14.05;100.00
2192;BME280;1102;49.718;11.902;2023-03-22T10:50:42;95947.41;;;14.06;100.00
2192;BME280;1102;49.718;11.902;2023-03-22T10:53:44;95941.53;;;14.19;100.00
2192;BME280;1102;49.718;11.902;2023-03-22T10:56:15;95946.66;;;14.32;100.00
2192;BME280;1102;49.718;11.902;2023-03-22T10:58:42;95928.63;;;14.22;100.00
2192;BME280;1102;49.718;11.902;2023-03-22T11:01:15;95947.47;;;14.66;100.00
2192;BME280;1102;49.718;11.902;2023-03-22T11:03:50;95942.63;;;14.71;98.80
2192;BME280;1102;49.718;11.902;2023-03-22T11:06:29;95941.53;;;14.76;93.99
2192;BME280;1102;49.718;11.902;2023-03-22T11:09:00;95940.88;;;14.83;92.88
2192;BME280;1102;49.718;11.902;2023-03-22T11:11:35;95934.53;;;14.64;88.54
2192;BME280;1102;49.718;11.902;2023-03-22T11:14:07;95942.78;;;14.86;89.76
2192;BME280;1102;49.718;11.902;2023-03-22T11:19:21;95917.75;;;14.90;87.73
2192;BME280;1102;49.718;11.902;2023-03-22T11:21:51;95898.00;;;14.95;86.23
2192;BME280;1102;49.718;11.902;2023-03-22T11:24:19;95949.16;;;15.11;84.04
2192;BME280;1102;49.718;11.902;2023-03-22T11:27:26;95943.09;;;15.14;85.41
2192;BME280;1102;49.718;11.902;2023-03-22T11:30:16;95935.22;;;15.25;85.12
2192;BME280;1102;49.718;11.902;2023-03-22T11:32:45;95909.72;;;15.64;85.18
2192;BME280;1102;49.718;11.902;2023-03-22T11:35:23;95928.09;;;15.77;83.85
2192;BME280;1102;49.718;11.902;2023-03-22T11:37:54;95906.50;;;15.48;82.09
2192;BME280;1102;49.718;11.902;2023-03-22T11:40:35;95929.78;;;15.55;82.69
2192;BME280;1102;49.718;11.902;2023-03-22T11:45:35;95909.19;;;15.96;84.54
2192;BME280;1102;49.718;11.902;2023-03-22T11:48:12;95901.19;;;15.96;83.01
2192;BME280;1102;49.718;11.902;2023-03-22T11:50:42;95905.78;;;15.99;83.22
2192;BME280;1102;49.718;11.902;2023-03-22T11:53:19;95892.16;;;16.15;82.40
2192;BME280;1102;49.718;11.902;2023-03-22T11:55:49;95887.72;;;16.40;81.89
2192;BME280;1102;49.718;11.902;2023-03-22T11:58:53;95877.53;;;16.64;81.11
2192;BME280;1102;49.718;11.902;2023-03-22T12:02:17;95884.28;;;16.36;79.74
2192;BME280;1102;49.718;11.902;2023-03-22T12:04:21;95850.91;;;15.91;79.78
2192;BME280;1102;49.718;11.902;2023-03-22T12:06:51;95885.03;;;16.33;79.74
2192;BME280;1102;49.718;11.902;2023-03-22T12:09:42;95898.00;;;16.35;79.45
2192;BME280;1102;49.718;11.902;2023-03-22T12:12:16;95881.00;;;15.99;79.82
2192;BME280;1102;49.718;11.902;2023-03-22T12:20:11;95895.44;;;16.60;79.52
2192;BME280;1102;49.718;11.902;2023-03-22T12:22:47;95871.31;;;16.38;78.52
2192;BME280;1102;49.718;11.902;2023-03-22T12:25:24;95853.41;;;16.42;79.08
2192;BME280;1102;49.718;11.902;2023-03-22T12:27:56;95839.28;;;16.35;78.23
2192;BME280;1102;49.718;11.902;2023-03-22T12:30:30;95877.25;;;16.94;77.93
2192;BME280;1102;49.718;11.902;2023-03-22T12:33:13;95880.75;;;17.12;78.13
2192;BME280;1102;49.718;11.902;2023-03-22T12:35:44;95852.50;;;17.32;77.44
2192;BME280;1102;49.718;11.902;2023-03-22T12:38:45;95875.72;;;16.93;76.57
2192;BME280;1102;49.718;11.902;2023-03-22T12:41:18;95872.13;;;16.49;79.03
2192;BME280;1102;49.718;11.902;2023-03-22T12:44:10;95864.16;;;16.57;78.20
2192;BME280;1102;49.718;11.902;2023-03-22T12:46:52;95844.03;;;16.73;77.08
2192;BME280;1102;49.718;11.902;2023-03-22T12:49:29;95867.34;;;16.87;77.17
2192;BME280;1102;49.718;11.902;2023-03-22T12:52:23;95878.03;;;16.94;76.58
2192;BME280;1102;49.718;11.902;2023-03-22T12:54:59;95833.34;;;16.80;77.06
2192;BME280;1102;49.718;11.902;2023-03-22T12:57:26;95815.03;;;16.79;76.97
2192;BME280;1102;49.718;11.902;2023-03-22T12:59:56;95857.47;;;17.20;76.83
2192;BME280;1102;49.718;11.902;2023-03-22T13:02:31;95853.22;;;16.83;76.39
2192;BME280;1102;49.718;11.902;2023-03-22T13:05:05;95851.31;;;16.94;76.30
2192;BME280;1102;49.718;11.902;2023-03-22T13:13:40;95846.97;;;16.54;73.57
2192;BME280;1102;49.718;11.902;2023-03-22T13:23:34;95805.03;;;16.54;70.42
2192;BME280;1102;49.718;11.902;2023-03-22T13:26:02;95834.72;;;16.42;69.99
2192;BME280;1102;49.718;11.902;2023-03-22T13:28:30;95838.16;;;16.39;67.36
2192;BME280;1102;49.718;11.902;2023-03-22T13:31:03;95857.84;;;17.14;67.84
2192;BME280;1102;49.718;11.902;2023-03-22T13:33:33;95850.88;;;16.67;69.78
2192;BME280;1102;49.718;11.902;2023-03-22T13:36:20;95849.03;;;16.89;69.56
2192;BME280;1102;49.718;11.902;2023-03-22T13:38:59;95832.97;;;16.71;69.40
2192;BME280;1102;49.718;11.902;2023-03-22T13:41:32;95832.28;;;17.13;69.02
2192;BME280;1102;49.718;11.902;2023-03-22T13:44:20;95833.81;;;17.50;67.98
2192;BME280;1102;49.718;11.902;2023-03-22T13:46:51;95815.13;;;17.25;67.18
2192;BME280;1102;49.718;11.902;2023-03-22T13:52:06;95803.25;;;17.58;67.46
2192;BME280;1102;49.718;11.902;2023-03-22T13:54:41;95837.84;;;18.44;66.67
2192;BME280;1102;49.718;11.902;2023-03-22T13:57:37;95851.69;;;18.17;67.32
2192;BME280;1102;49.718;11.902;2023-03-22T14:00:17;95823.13;;;17.71;67.85
2192;BME280;1102;49.718;11.902;2023-03-22T14:02:48;95830.34;;;16.89;68.85
2192;BME280;1102;49.718;11.902;2023-03-22T14:05:20;95824.09;;;16.53;69.92
2192;BME280;1102;49.718;11.902;2023-03-22T14:07:54;95816.41;;;16.34;71.20
2192;BME280;1102;49.718;11.902;2023-03-22T14:10:45;95823.34;;;16.49;71.34
2192;BME280;1102;49.718;11.902;2023-03-22T14:13:20;95806.09;;;16.25;70.65
2192;BME280;1102;49.718;11.902;2023-03-22T14:16:01;95763.25;;;15.82;72.09
2192;BME280;1102;49.718;11.902;2023-03-22T14:18:32;95812.38;;;15.85;71.36
2192;BME280;1102;49.718;11.902;2023-03-22T14:21:05;95814.28;;;15.84;72.38
2192;BME280;1102;49.718;11.902;2023-03-22T14:23:38;95807.34;;;15.73;72.66
2192;BME280;1102;49.718;11.902;2023-03-22T14:26:15;95812.28;;;15.71;72.69
2192;BME280;1102;49.718;11.902;2023-03-22T14:28:43;95814.56;;;15.72;72.79
2192;BME280;1102;49.718;11.902;2023-03-22T14:31:28;95786.75;;;15.62;72.65
2192;BME280;1102;49.718;11.902;2023-03-22T14:33:55;95803.53;;;15.70;71.55
2192;BME280;1102;49.718;11.902;2023-03-22T14:36:27;95772.78;;;15.28;71.48